createdAt,value
2022-08-01T00:00:53.496Z,95571.03
2022-08-01T00:03:21.132Z,95580.94
2022-08-01T00:05:49.718Z,95583.63
2022-08-01T00:08:17.380Z,95577.50
2022-08-01T00:10:46.887Z,95584.91
2022-08-01T00:13:14.783Z,95580.19
2022-08-01T00:15:53.731Z,95587.75
2022-08-01T00:18:22.517Z,95583.38
2022-08-01T00:20:50.836Z,95577.69
2022-08-01T00:23:18.602Z,95578.97
2022-08-01T00:25:47.906Z,95579.63
2022-08-01T00:28:15.542Z,95581.69
2022-08-01T00:30:43.943Z,95576.41
2022-08-01T00:33:11.674Z,95576.09
2022-08-01T00:35:40.054Z,95583.22
2022-08-01T00:38:07.707Z,95586.97
2022-08-01T00:40:35.758Z,95577.28
2022-08-01T00:43:04.987Z,95579.88
2022-08-01T00:45:33.284Z,95589.28
2022-08-01T00:48:00.900Z,95585.38
2022-08-01T00:50:29.331Z,95584.44
2022-08-01T00:52:57.428Z,95594.75
2022-08-01T00:55:25.880Z,95584.69
2022-08-01T00:58:05.123Z,95587.06
2022-08-01T01:00:52.383Z,95578.53
2022-08-01T01:03:26.371Z,95584.63
2022-08-01T01:06:12.923Z,95587.63
2022-08-01T01:08:45.203Z,95585.53
2022-08-01T01:11:19.518Z,95589.50
2022-08-01T01:13:54.341Z,95583.22
2022-08-01T01:16:25.067Z,95587.41
2022-08-01T01:18:57.047Z,95587.50
2022-08-01T01:21:59.827Z,95584.53
2022-08-01T01:24:39.683Z,95586.56
2022-08-01T01:27:15.167Z,95590.81
2022-08-01T01:29:58.498Z,95588.66
2022-08-01T01:32:34.681Z,95595.50
2022-08-01T01:35:06.838Z,95589.91
2022-08-01T01:37:36.231Z,95591.44
2022-08-01T01:40:06.625Z,95600.03
2022-08-01T01:42:35.342Z,95599.47
2022-08-01T01:45:06.862Z,95590.72
2022-08-01T01:47:36.322Z,95599.97
2022-08-01T01:50:05.879Z,95603.84
2022-08-01T01:52:35.013Z,95599.47
2022-08-01T01:55:07.299Z,95598.03
2022-08-01T01:57:38.502Z,95604.25
2022-08-01T02:00:09.481Z,95602.47
2022-08-01T02:02:39.030Z,95597.16
2022-08-01T02:05:08.010Z,95608.13
2022-08-01T02:07:37.809Z,95599.41
2022-08-01T02:10:07.309Z,95601.88
2022-08-01T02:12:38.540Z,95602.09
2022-08-01T02:15:10.277Z,95606.28
2022-08-01T02:17:41.651Z,95606.28
2022-08-01T02:20:11.093Z,95604.78
2022-08-01T02:22:43.998Z,95610.25
2022-08-01T02:25:18.985Z,95609.53
2022-08-01T02:27:54.111Z,95612.00
2022-08-01T02:30:27.058Z,95613.63
2022-08-01T02:33:02.780Z,95620.03
2022-08-01T02:35:35.510Z,95621.88
2022-08-01T02:38:27.902Z,95615.50
2022-08-01T02:40:59.613Z,95623.16
2022-08-01T02:43:30.574Z,95618.63
2022-08-01T02:46:03.594Z,95617.84
2022-08-01T02:48:35.171Z,95618.88
2022-08-01T02:51:05.582Z,95618.03
2022-08-01T02:53:44.080Z,95616.59
2022-08-01T02:56:15.795Z,95622.56
2022-08-01T02:58:45.719Z,95616.78
2022-08-01T03:01:17.244Z,95621.63
2022-08-01T03:03:48.221Z,95623.94
2022-08-01T03:06:17.819Z,95618.94
2022-08-01T03:08:49.645Z,95626.28
2022-08-01T03:11:19.209Z,95623.72
2022-08-01T03:13:48.553Z,95626.28
2022-08-01T03:16:20.258Z,95628.28
2022-08-01T03:18:50.677Z,95628.63
2022-08-01T03:21:21.019Z,95620.94
2022-08-01T03:23:55.069Z,95630.47
2022-08-01T03:26:24.279Z,95627.56
2022-08-01T03:28:55.617Z,95627.78
2022-08-01T03:31:26.525Z,95629.53
2022-08-01T03:33:54.346Z,95638.34
2022-08-01T03:36:27.487Z,95639.75
2022-08-01T03:38:59.987Z,95648.00
2022-08-01T03:41:34.813Z,95646.91
2022-08-01T03:44:06.213Z,95652.66
2022-08-01T03:46:45.431Z,95646.00
2022-08-01T03:49:18.750Z,95651.72
2022-08-01T03:51:50.680Z,95652.63
2022-08-01T03:54:22.127Z,95653.50
2022-08-01T03:56:52.662Z,95655.66
2022-08-01T03:59:22.432Z,95652.97
2022-08-01T04:01:52.667Z,95653.91
2022-08-01T04:04:20.534Z,95650.63
2022-08-01T04:06:51.849Z,95658.41
2022-08-01T04:09:19.949Z,95659.50
2022-08-01T04:11:48.443Z,95653.72
2022-08-01T04:14:16.219Z,95664.53
2022-08-01T04:16:44.855Z,95660.59
2022-08-01T04:19:14.669Z,95664.28
2022-08-01T04:21:42.464Z,95663.84
2022-08-01T04:24:15.533Z,95664.22
2022-08-01T04:26:46.846Z,95665.84
2022-08-01T04:29:18.533Z,95666.81
2022-08-01T04:31:50.530Z,95669.63
2022-08-01T04:34:23.699Z,95674.41
2022-08-01T04:36:53.818Z,95673.19
2022-08-01T04:39:28.429Z,95676.41
2022-08-01T04:41:58.514Z,95681.88
2022-08-01T04:44:32.465Z,95671.00
2022-08-01T04:47:01.971Z,95683.22
2022-08-01T04:49:31.431Z,95676.50
2022-08-01T04:52:16.867Z,95679.06
2022-08-01T04:54:47.431Z,95686.94
2022-08-01T04:57:15.796Z,95684.28
2022-08-01T04:59:45.303Z,95687.63
2022-08-01T05:02:15.845Z,95689.28
2022-08-01T05:04:46.054Z,95689.75
2022-08-01T05:07:15.212Z,95690.28
2022-08-01T05:09:43.985Z,95694.41
2022-08-01T05:12:12.347Z,95688.59
2022-08-01T05:14:40.339Z,95695.44
2022-08-01T05:17:10.696Z,95697.28
2022-08-01T05:19:40.124Z,95693.66
2022-08-01T05:22:11.924Z,95697.22
2022-08-01T05:24:41.636Z,95699.03
2022-08-01T05:27:09.718Z,95700.72
2022-08-01T05:29:44.246Z,95706.78
2022-08-01T05:32:12.998Z,95714.59
2022-08-01T05:34:40.680Z,95709.06
2022-08-01T05:37:10.628Z,95708.16
2022-08-01T05:39:38.257Z,95717.00
2022-08-01T05:42:06.543Z,95708.28
2022-08-01T05:44:35.262Z,95707.00
2022-08-01T05:47:03.641Z,95711.63
2022-08-01T05:49:31.670Z,95717.63
2022-08-01T05:51:59.694Z,95712.31
2022-08-01T05:54:28.970Z,95715.53
2022-08-01T05:57:00.461Z,95716.06
2022-08-01T05:59:29.130Z,95713.16
2022-08-01T06:01:56.823Z,95721.59
2022-08-01T06:04:25.332Z,95720.72
2022-08-01T06:06:52.980Z,95722.59
2022-08-01T06:09:21.278Z,95717.28
2022-08-01T06:11:50.281Z,95727.75
2022-08-01T06:14:18.434Z,95722.94
2022-08-01T06:16:46.071Z,95717.88
2022-08-01T06:19:13.701Z,95719.84
2022-08-01T06:21:41.376Z,95730.28
2022-08-01T06:24:10.342Z,95731.97
2022-08-01T06:26:38.097Z,95739.38
2022-08-01T06:29:07.071Z,95730.25
2022-08-01T06:31:37.645Z,95739.41
2022-08-01T06:34:05.291Z,95740.06
2022-08-01T06:36:32.920Z,95735.19
2022-08-01T06:39:00.941Z,95735.38
2022-08-01T06:41:28.563Z,95737.16
2022-08-01T06:43:56.621Z,95731.69
2022-08-01T06:46:30.248Z,95732.78
2022-08-01T06:49:00.195Z,95739.38
2022-08-01T06:51:27.927Z,95726.78
2022-08-01T06:53:55.653Z,95736.31
2022-08-01T06:56:23.414Z,95727.31
2022-08-01T06:58:52.254Z,95732.31
2022-08-01T07:01:20.037Z,95733.06
2022-08-01T07:03:53.627Z,95728.59
2022-08-01T07:06:23.406Z,95736.66
2022-08-01T07:08:51.434Z,95729.31
2022-08-01T07:11:19.308Z,95731.34
2022-08-01T07:13:47.411Z,95735.03
2022-08-01T07:16:15.045Z,95736.66
2022-08-01T07:18:43.551Z,95730.06
2022-08-01T07:21:25.513Z,95732.94
2022-08-01T07:24:00.492Z,95739.56
2022-08-01T07:26:28.543Z,95734.75
2022-08-01T07:28:56.331Z,95729.72
2022-08-01T07:31:27.353Z,95731.66
2022-08-01T07:33:57.511Z,95728.47
2022-08-01T07:36:26.641Z,95726.16
2022-08-01T07:38:54.431Z,95728.97
2022-08-01T07:41:22.170Z,95724.47
2022-08-01T07:44:10.107Z,95726.41
2022-08-01T07:46:38.119Z,95718.25
2022-08-01T07:49:06.189Z,95721.53
2022-08-01T07:51:35.286Z,95721.00
2022-08-01T07:54:03.267Z,95725.03
2022-08-01T07:56:30.937Z,95720.97
2022-08-01T07:58:58.711Z,95726.38
2022-08-01T08:01:26.408Z,95716.69
2022-08-01T08:03:54.194Z,95716.13
2022-08-01T08:06:22.943Z,95712.09
2022-08-01T08:08:52.720Z,95709.13
2022-08-01T08:11:20.880Z,95708.34
2022-08-01T08:13:48.540Z,95706.94
2022-08-01T08:16:16.322Z,95708.81
2022-08-01T08:18:44.003Z,95700.19
2022-08-01T08:21:11.662Z,95698.84
2022-08-01T08:23:56.863Z,95701.00
2022-08-01T08:26:26.258Z,95703.78
2022-08-01T08:28:53.957Z,95697.50
2022-08-01T08:31:25.059Z,95700.72
2022-08-01T08:33:53.717Z,95692.09
2022-08-01T08:36:21.814Z,95693.91
2022-08-01T08:38:56.259Z,95697.34
2022-08-01T08:41:24.487Z,95694.38
2022-08-01T08:43:54.382Z,95698.41
2022-08-01T08:46:28.153Z,95694.88
2022-08-01T08:48:57.415Z,95702.19
2022-08-01T08:51:28.791Z,95697.13
2022-08-01T08:53:57.727Z,95692.56
2022-08-01T08:56:28.362Z,95693.13
2022-08-01T08:58:57.739Z,95695.22
2022-08-01T09:01:25.454Z,95704.72
2022-08-01T09:03:53.255Z,95693.38
2022-08-01T09:06:21.483Z,95693.56
2022-08-01T09:08:49.110Z,95699.44
2022-08-01T09:11:23.103Z,95699.00
2022-08-01T09:14:10.173Z,95706.94
2022-08-01T09:16:48.029Z,95701.75
2022-08-01T09:19:38.951Z,95699.03
2022-08-01T09:22:07.859Z,95695.13
2022-08-01T09:24:36.503Z,95691.44
2022-08-01T09:27:21.713Z,95700.13
2022-08-01T09:30:01.572Z,95689.44
2022-08-01T09:32:35.147Z,95692.34
2022-08-01T09:35:29.995Z,95691.41
2022-08-01T09:38:16.589Z,95682.63
2022-08-01T09:40:49.898Z,95686.81
2022-08-01T09:43:19.131Z,95687.94
2022-08-01T09:45:50.725Z,95681.09
2022-08-01T09:48:22.535Z,95697.22
2022-08-01T09:50:52.603Z,95681.09
2022-08-01T09:53:30.327Z,95684.81
2022-08-01T09:56:11.960Z,95681.56
2022-08-01T09:58:59.275Z,95688.75
2022-08-01T10:01:37.130Z,95689.34
2022-08-01T10:04:12.328Z,95682.31
2022-08-01T10:06:43.700Z,95684.00
2022-08-01T10:09:12.131Z,95679.41
2022-08-01T10:11:44.967Z,95680.34
2022-08-01T10:14:18.124Z,95680.50
2022-08-01T10:16:53.474Z,95673.38
2022-08-01T10:19:24.069Z,95674.56
2022-08-01T10:21:58.956Z,95671.41
2022-08-01T10:24:29.396Z,95664.16
2022-08-01T10:27:05.781Z,95663.41
2022-08-01T10:29:45.639Z,95665.19
2022-08-01T10:32:18.358Z,95661.94
2022-08-01T10:34:51.294Z,95662.78
2022-08-01T10:37:19.343Z,95659.09
2022-08-01T10:39:47.067Z,95660.03
2022-08-01T10:42:16.484Z,95660.22
2022-08-01T10:44:47.241Z,95656.25
2022-08-01T10:47:27.095Z,95642.06
2022-08-01T10:50:21.757Z,95643.69
2022-08-01T10:53:16.483Z,95645.97
2022-08-01T10:55:55.142Z,95644.47
2022-08-01T10:58:25.079Z,95644.16
2022-08-01T11:01:25.871Z,95639.00
2022-08-01T11:04:10.482Z,95640.78
2022-08-01T11:06:51.438Z,95632.16
2022-08-01T11:09:40.618Z,95629.66
2022-08-01T11:12:13.454Z,95621.00
2022-08-01T11:15:29.710Z,95618.63
2022-08-01T11:18:01.230Z,95613.84
2022-08-01T11:20:41.887Z,95618.88
2022-08-01T11:23:21.797Z,95629.28
2022-08-01T11:26:11.528Z,95607.63
2022-08-01T11:28:47.066Z,95606.06
2022-08-01T11:31:37.007Z,95599.78
2022-08-01T11:34:06.029Z,95597.75
2022-08-01T11:39:23.816Z,95602.97
2022-08-01T11:41:53.635Z,95599.47
2022-08-01T11:44:30.581Z,95600.47
2022-08-01T11:47:09.384Z,95596.94
2022-08-01T11:50:00.513Z,95599.56
2022-08-01T11:52:34.572Z,95601.53
2022-08-01T11:55:10.192Z,95599.84
2022-08-01T11:57:39.353Z,95587.25
2022-08-01T12:00:15.259Z,95591.59
2022-08-01T12:02:46.077Z,95583.31
2022-08-01T12:05:17.433Z,95582.44
2022-08-01T12:07:51.455Z,95584.22
2022-08-01T12:10:20.809Z,95590.66
2022-08-01T12:12:51.075Z,95578.31
2022-08-01T12:15:20.089Z,95569.91
2022-08-01T12:17:59.132Z,95575.50
2022-08-01T12:20:30.464Z,95573.38
2022-08-01T12:23:03.301Z,95572.38
2022-08-01T12:25:31.183Z,95573.72
2022-08-01T12:28:02.815Z,95568.69
2022-08-01T12:30:32.641Z,95572.38
2022-08-01T12:33:00.584Z,95583.78
2022-08-01T12:35:30.085Z,95588.66
2022-08-01T12:38:02.440Z,95597.97
2022-08-01T12:40:31.757Z,95599.38
2022-08-01T12:43:01.175Z,95601.38
2022-08-01T12:45:31.904Z,95583.41
2022-08-01T12:48:00.873Z,95582.50
2022-08-01T12:50:31.627Z,95584.19
2022-08-01T12:53:02.895Z,95583.81
2022-08-01T12:55:34.602Z,95585.66
2022-08-01T12:58:10.293Z,95578.44
2022-08-01T13:00:45.394Z,95572.88
2022-08-01T13:03:16.173Z,95574.41
2022-08-01T13:05:45.934Z,95569.16
2022-08-01T13:08:16.635Z,95571.47
2022-08-01T13:10:45.095Z,95568.75
2022-08-01T13:13:22.345Z,95565.53
2022-08-01T13:16:06.533Z,95562.19
2022-08-01T13:18:36.174Z,95571.28
2022-08-01T13:21:11.737Z,95565.75
2022-08-01T13:24:01.304Z,95571.78
2022-08-01T13:26:43.766Z,95575.09
2022-08-01T13:29:14.516Z,95567.94
2022-08-01T13:31:43.344Z,95582.00
2022-08-01T13:34:12.860Z,95579.41
2022-08-01T13:36:46.827Z,95580.59
2022-08-01T13:39:36.049Z,95586.09
2022-08-01T13:42:04.075Z,95577.44
2022-08-01T13:44:32.699Z,95578.09
2022-08-01T13:47:01.323Z,95578.69
2022-08-01T13:49:37.473Z,95578.91
2022-08-01T13:52:08.220Z,95585.22
2022-08-01T13:54:38.329Z,95577.41
2022-08-01T13:57:06.053Z,95576.59
2022-08-01T13:59:34.563Z,95586.50
2022-08-01T14:02:02.227Z,95588.56
2022-08-01T14:04:30.336Z,95599.72
2022-08-01T14:06:58.037Z,95592.38
2022-08-01T14:09:32.406Z,95598.34
2022-08-01T14:12:01.629Z,95601.97
2022-08-01T14:14:29.807Z,95599.47
2022-08-01T14:16:57.556Z,95597.19
2022-08-01T14:19:38.673Z,95598.91
2022-08-01T14:22:07.927Z,95604.78
2022-08-01T14:24:36.530Z,95617.13
2022-08-01T14:27:07.973Z,95610.09
2022-08-01T14:30:02.063Z,95607.94
2022-08-01T14:32:28.984Z,95606.63
2022-08-01T14:34:56.821Z,95606.97
2022-08-01T14:37:28.567Z,95617.88
2022-08-01T14:39:57.314Z,95615.81
2022-08-01T14:42:28.234Z,95616.97
2022-08-01T14:44:55.933Z,95624.59
2022-08-01T14:47:23.771Z,95623.28
2022-08-01T14:49:52.382Z,95616.06
2022-08-01T14:52:20.495Z,95627.97
2022-08-01T14:54:48.849Z,95622.59
2022-08-01T14:57:19.056Z,95626.84
2022-08-01T14:59:49.159Z,95630.41
2022-08-01T15:02:18.140Z,95625.88
2022-08-01T15:04:46.092Z,95624.22
2022-08-01T15:07:14.662Z,95638.81
2022-08-01T15:09:42.779Z,95642.06
2022-08-01T15:12:11.347Z,95655.81
2022-08-01T15:14:51.708Z,95665.28
2022-08-01T15:17:22.461Z,95671.78
2022-08-01T15:19:52.678Z,95672.66
2022-08-01T15:22:22.177Z,95666.94
2022-08-01T15:24:56.857Z,95665.13
2022-08-01T15:27:25.680Z,95663.75
2022-08-01T15:29:53.384Z,95660.50
2022-08-01T15:32:22.745Z,95653.00
2022-08-01T15:34:50.404Z,95651.38
2022-08-01T15:37:18.621Z,95648.13
2022-08-01T15:39:46.364Z,95641.31
2022-08-01T15:42:23.851Z,95633.97
2022-08-01T15:44:54.757Z,95626.91
2022-08-01T15:47:25.161Z,95625.88
2022-08-01T15:49:53.107Z,95621.00
2022-08-01T15:52:22.243Z,95622.13
2022-08-01T15:54:50.499Z,95615.63
2022-08-01T15:57:18.158Z,95611.59
2022-08-01T15:59:45.879Z,95611.31
2022-08-01T16:02:14.528Z,95605.59
2022-08-01T16:04:43.628Z,95600.94
2022-08-01T16:07:12.385Z,95597.66
2022-08-01T16:09:40.253Z,95594.41
2022-08-01T16:12:10.312Z,95600.78
2022-08-01T16:14:38.106Z,95591.78
2022-08-01T16:17:06.632Z,95588.16
2022-08-01T16:19:34.265Z,95592.44
2022-08-01T16:22:03.321Z,95582.13
2022-08-01T16:24:31.225Z,95583.72
2022-08-01T16:26:59.123Z,95581.28
2022-08-01T16:29:30.578Z,95578.38
2022-08-01T16:32:11.719Z,95570.56
2022-08-01T16:34:47.539Z,95582.34
2022-08-01T16:37:17.351Z,95569.84
2022-08-01T16:39:45.550Z,95570.56
2022-08-01T16:42:15.812Z,95568.22
2022-08-01T16:44:44.919Z,95569.63
2022-08-01T16:47:12.882Z,95575.56
2022-08-01T16:49:40.592Z,95563.97
2022-08-01T16:52:09.263Z,95562.09
2022-08-01T16:54:38.623Z,95557.72
2022-08-01T16:57:08.487Z,95562.28
2022-08-01T16:59:40.922Z,95554.38
2022-08-01T17:02:09.485Z,95562.44
2022-08-01T17:04:37.294Z,95562.44
2022-08-01T17:07:05.464Z,95566.25
2022-08-01T17:09:33.503Z,95567.13
2022-08-01T17:12:03.177Z,95565.81
2022-08-01T17:14:33.275Z,95562.06
2022-08-01T17:17:01.219Z,95558.84
2022-08-01T17:19:33.001Z,95557.25
2022-08-01T17:22:01.218Z,95541.56
2022-08-01T17:24:28.851Z,95541.56
2022-08-01T17:26:56.914Z,95542.13
2022-08-01T17:29:27.294Z,95546.97
2022-08-01T17:31:55.036Z,95554.84
2022-08-01T17:34:22.664Z,95562.13
2022-08-01T17:36:50.310Z,95558.91
2022-08-01T17:39:23.198Z,95565.41
2022-08-01T17:41:51.699Z,95562.16
2022-08-01T17:44:19.338Z,95568.66
2022-08-01T17:46:48.991Z,95583.81
2022-08-01T17:49:28.605Z,95579.50
2022-08-01T17:52:04.972Z,95577.34
2022-08-01T17:54:33.192Z,95573.88
2022-08-01T17:57:01.567Z,95582.81
2022-08-01T17:59:29.307Z,95583.41
2022-08-01T18:01:58.860Z,95590.44
2022-08-01T18:04:27.814Z,95599.06
2022-08-01T18:07:10.418Z,95593.97
2022-08-01T18:09:43.994Z,95607.97
2022-08-01T18:12:14.283Z,95603.94
2022-08-01T18:14:43.933Z,95606.38
2022-08-01T18:17:13.677Z,95610.16
2022-08-01T18:19:41.554Z,95606.63
2022-08-01T18:22:33.864Z,95623.88
2022-08-01T18:25:08.644Z,95623.06
2022-08-01T18:28:19.683Z,95631.84
2022-08-01T18:30:25.001Z,95639.88
2022-08-01T18:32:55.904Z,95653.63
2022-08-01T18:35:24.235Z,95654.47
2022-08-01T18:38:11.839Z,95662.44
2022-08-01T18:40:39.650Z,95672.13
2022-08-01T18:43:07.702Z,95671.53
2022-08-01T18:45:39.580Z,95680.09
2022-08-01T18:48:12.368Z,95667.81
2022-08-01T18:50:40.495Z,95657.63
2022-08-01T18:53:08.769Z,95661.97
2022-08-01T18:55:36.454Z,95661.97
2022-08-01T18:58:04.584Z,95666.81
2022-08-01T19:00:32.414Z,95665.19
2022-08-01T19:03:00.943Z,95668.16
2022-08-01T19:05:31.201Z,95667.84
2022-08-01T19:08:06.103Z,95664.34
2022-08-01T19:10:34.961Z,95656.31
2022-08-01T19:13:02.989Z,95657.66
2022-08-01T19:15:30.887Z,95655.47
2022-08-01T19:17:58.670Z,95640.13
2022-08-01T19:20:26.587Z,95644.69
2022-08-01T19:22:56.423Z,95636.31
2022-08-01T19:25:24.394Z,95643.31
2022-08-01T19:27:53.475Z,95656.47
2022-08-01T19:30:21.101Z,95662.38
2022-08-01T19:32:49.248Z,95662.06
2022-08-01T19:35:17.867Z,95671.00
2022-08-01T19:37:47.654Z,95680.16
2022-08-01T19:40:27.019Z,95680.16
2022-08-01T19:42:57.510Z,95687.69
2022-08-01T19:45:29.690Z,95699.25
2022-08-01T19:47:58.139Z,95692.47
2022-08-01T19:50:26.722Z,95701.09
2022-08-01T19:52:56.067Z,95705.41
2022-08-01T19:55:27.918Z,95700.28
2022-08-01T19:58:25.892Z,95696.50
2022-08-01T20:00:46.020Z,95708.09
2022-08-01T20:03:18.819Z,95704.84
2022-08-01T20:05:46.519Z,95723.97
2022-08-01T20:08:16.193Z,95718.56
2022-08-01T20:10:47.454Z,95720.91
2022-08-01T20:13:15.491Z,95740.63
2022-08-01T20:15:44.284Z,95750.44
2022-08-01T20:18:12.106Z,95760.59
2022-08-01T20:20:39.836Z,95769.59
2022-08-01T20:23:18.325Z,95774.06
2022-08-01T20:25:51.239Z,95797.47
2022-08-01T20:28:27.090Z,95819.88
2022-08-01T20:31:01.046Z,95845.47
2022-08-01T20:33:31.493Z,95850.31
2022-08-01T20:36:02.164Z,95874.78
2022-08-01T20:38:31.637Z,95868.13
2022-08-01T20:41:03.484Z,95882.84
2022-08-01T20:43:31.191Z,95905.66
2022-08-01T20:45:59.426Z,95906.84
2022-08-01T20:48:29.673Z,95906.31
2022-08-01T20:51:19.430Z,95893.41
2022-08-01T20:53:52.491Z,95878.34
2022-08-01T20:56:36.185Z,95883.19
2022-08-01T20:59:39.513Z,95895.75
2022-08-01T21:02:09.537Z,95902.97
2022-08-01T21:04:47.230Z,95893.97
2022-08-01T21:07:24.262Z,95912.03
2022-08-01T21:09:56.395Z,95901.06
2022-08-01T21:12:33.817Z,95907.72
2022-08-01T21:15:02.856Z,95898.06
2022-08-01T21:17:44.790Z,95896.97
2022-08-01T21:20:15.047Z,95898.09
2022-08-01T21:22:52.530Z,95888.31
2022-08-01T21:25:25.521Z,95888.81
2022-08-01T21:27:56.352Z,95888.00
2022-08-01T21:30:26.271Z,95864.47
2022-08-01T21:32:55.071Z,95865.28
2022-08-01T21:35:25.778Z,95852.94
2022-08-01T21:37:54.741Z,95842.59
2022-08-01T21:40:23.903Z,95833.34
2022-08-01T21:42:53.152Z,95819.25
2022-08-01T21:45:24.210Z,95806.13
2022-08-01T21:47:52.946Z,95805.44
2022-08-01T21:50:21.866Z,95818.09
2022-08-01T21:52:54.289Z,95803.13
2022-08-01T21:55:33.968Z,95800.56
2022-08-01T21:58:16.502Z,95775.88
2022-08-01T22:00:52.317Z,95780.41
2022-08-01T22:03:24.610Z,95792.97
2022-08-01T22:05:54.116Z,95803.38
2022-08-01T22:08:28.559Z,95822.91
2022-08-01T22:10:59.972Z,95828.66
2022-08-01T22:13:28.434Z,95831.44
2022-08-01T22:15:58.866Z,95835.84
2022-08-01T22:18:27.964Z,95825.03
2022-08-01T22:20:56.558Z,95816.44
2022-08-01T22:23:24.634Z,95816.31
2022-08-01T22:25:53.707Z,95820.50
2022-08-01T22:28:22.127Z,95825.50
2022-08-01T22:30:52.208Z,95823.97
2022-08-01T22:33:21.330Z,95818.53
2022-08-01T22:35:50.903Z,95816.44
2022-08-01T22:38:19.654Z,95823.09
2022-08-01T22:40:51.178Z,95823.66
2022-08-01T22:43:26.197Z,95822.97
2022-08-01T22:46:06.653Z,95827.50
2022-08-01T22:48:41.228Z,95820.88
2022-08-01T22:51:22.642Z,95823.22
2022-08-01T22:53:58.747Z,95817.72
2022-08-01T22:56:26.517Z,95807.72
2022-08-01T22:58:58.534Z,95795.06
2022-08-01T23:01:30.324Z,95804.47
2022-08-01T23:04:00.967Z,95790.16
2022-08-01T23:06:39.616Z,95787.28
2022-08-01T23:09:08.211Z,95797.50
2022-08-01T23:11:36.065Z,95794.59
2022-08-01T23:14:04.546Z,95807.63
2022-08-01T23:16:32.869Z,95806.69
2022-08-01T23:19:02.254Z,95822.72
2022-08-01T23:21:32.942Z,95819.41
2022-08-01T23:24:02.360Z,95828.47
2022-08-01T23:26:30.871Z,95818.78
2022-08-01T23:28:59.473Z,95827.59
2022-08-01T23:31:57.419Z,95821.50
2022-08-01T23:34:20.005Z,95823.09
2022-08-01T23:36:48.738Z,95810.16
2022-08-01T23:39:16.393Z,95818.00
2022-08-01T23:41:58.571Z,95814.78
2022-08-01T23:44:27.611Z,95813.47
2022-08-01T23:46:55.291Z,95803.66
2022-08-01T23:49:24.325Z,95803.16
2022-08-01T23:51:52.358Z,95799.13
2022-08-01T23:54:20.420Z,95803.16
2022-08-01T23:56:48.503Z,95792.28
2022-08-01T23:59:16.153Z,95792.41
